sensor_id;sensor_type;location;lat;lon;timestamp;temperature;humidity
20180;DHT22;10249;48.900;9.090;2022-08-03T00:01:06;20.60;99.90
20180;DHT22;10249;48.900;9.090;2022-08-03T00:03:32;20.60;99.90
20180;DHT22;10249;48.900;9.090;2022-08-03T00:05:59;20.30;99.90
20180;DHT22;10249;48.900;9.090;2022-08-03T00:08:26;20.20;99.90
20180;DHT22;10249;48.900;9.090;2022-08-03T00:10:53;20.10;99.90
20180;DHT22;10249;48.900;9.090;2022-08-03T00:13:19;19.80;99.90
20180;DHT22;10249;48.900;9.090;2022-08-03T00:15:46;19.60;99.90
20180;DHT22;10249;48.900;9.090;2022-08-03T00:18:14;19.60;99.90
20180;DHT22;10249;48.900;9.090;2022-08-03T00:20:41;19.30;99.90
20180;DHT22;10249;48.900;9.090;2022-08-03T00:23:07;19.50;99.90
20180;DHT22;10249;48.900;9.090;2022-08-03T00:25:34;19.40;99.90
20180;DHT22;10249;48.900;9.090;2022-08-03T00:28:02;19.80;99.90
20180;DHT22;10249;48.900;9.090;2022-08-03T00:30:30;19.70;99.90
20180;DHT22;10249;48.900;9.090;2022-08-03T00:32:57;19.90;99.90
20180;DHT22;10249;48.900;9.090;2022-08-03T00:35:27;19.70;99.90
20180;DHT22;10249;48.900;9.090;2022-08-03T00:37:53;19.40;99.90
20180;DHT22;10249;48.900;9.090;2022-08-03T00:40:20;19.10;99.90
20180;DHT22;10249;48.900;9.090;2022-08-03T00:42:52;19.20;99.90
20180;DHT22;10249;48.900;9.090;2022-08-03T00:45:21;19.30;99.90
20180;DHT22;10249;48.900;9.090;2022-08-03T00:47:48;19.10;99.90
20180;DHT22;10249;48.900;9.090;2022-08-03T00:50:16;19.10;99.90
20180;DHT22;10249;48.900;9.090;2022-08-03T00:52:45;19.00;99.90
20180;DHT22;10249;48.900;9.090;2022-08-03T00:55:13;19.20;99.90
20180;DHT22;10249;48.900;9.090;2022-08-03T00:57:41;19.30;99.90
20180;DHT22;10249;48.900;9.090;2022-08-03T01:00:10;19.20;99.90
20180;DHT22;10249;48.900;9.090;2022-08-03T01:02:39;19.30;99.90
20180;DHT22;10249;48.900;9.090;2022-08-03T01:05:06;19.30;99.90
20180;DHT22;10249;48.900;9.090;2022-08-03T01:07:41;19.30;99.90
20180;DHT22;10249;48.900;9.090;2022-08-03T01:10:24;19.50;99.90
20180;DHT22;10249;48.900;9.090;2022-08-03T01:12:58;19.50;99.90
20180;DHT22;10249;48.900;9.090;2022-08-03T01:15:32;19.30;99.90
20180;DHT22;10249;48.900;9.090;2022-08-03T01:18:07;19.10;99.90
20180;DHT22;10249;48.900;9.090;2022-08-03T01:20:38;18.90;99.90
20180;DHT22;10249;48.900;9.090;2022-08-03T01:26:08;19.20;99.90
20180;DHT22;10249;48.900;9.090;2022-08-03T01:28:53;18.80;99.90
20180;DHT22;10249;48.900;9.090;2022-08-03T01:31:27;18.90;99.90
20180;DHT22;10249;48.900;9.090;2022-08-03T01:34:02;19.20;99.90
20180;DHT22;10249;48.900;9.090;2022-08-03T01:36:33;19.20;99.90
20180;DHT22;10249;48.900;9.090;2022-08-03T01:39:04;19.20;99.90
20180;DHT22;10249;48.900;9.090;2022-08-03T01:41:36;19.00;99.90
20180;DHT22;10249;48.900;9.090;2022-08-03T01:44:07;19.10;99.90
20180;DHT22;10249;48.900;9.090;2022-08-03T01:46:36;19.00;99.90
20180;DHT22;10249;48.900;9.090;2022-08-03T01:49:06;19.20;99.90
20180;DHT22;10249;48.900;9.090;2022-08-03T01:51:34;19.20;99.90
20180;DHT22;10249;48.900;9.090;2022-08-03T01:54:04;19.10;99.90
20180;DHT22;10249;48.900;9.090;2022-08-03T01:56:31;19.20;99.90
20180;DHT22;10249;48.900;9.090;2022-08-03T01:59:00;19.00;99.90
20180;DHT22;10249;48.900;9.090;2022-08-03T02:01:28;19.20;99.90
20180;DHT22;10249;48.900;9.090;2022-08-03T02:03:57;19.10;99.90
20180;DHT22;10249;48.900;9.090;2022-08-03T02:06:26;19.20;99.90
20180;DHT22;10249;48.900;9.090;2022-08-03T02:08:54;19.20;99.90
20180;DHT22;10249;48.900;9.090;2022-08-03T02:11:22;19.10;99.90
20180;DHT22;10249;48.900;9.090;2022-08-03T02:13:50;19.10;99.90
20180;DHT22;10249;48.900;9.090;2022-08-03T02:16:17;19.10;99.90
20180;DHT22;10249;48.900;9.090;2022-08-03T02:18:44;19.10;99.90
20180;DHT22;10249;48.900;9.090;2022-08-03T02:21:14;19.00;99.90
20180;DHT22;10249;48.900;9.090;2022-08-03T02:23:41;18.90;99.90
20180;DHT22;10249;48.900;9.090;2022-08-03T02:26:10;18.80;99.90
20180;DHT22;10249;48.900;9.090;2022-08-03T02:28:42;18.60;99.90
20180;DHT22;10249;48.900;9.090;2022-08-03T02:31:12;18.60;99.90
20180;DHT22;10249;48.900;9.090;2022-08-03T02:33:43;18.60;99.90
20180;DHT22;10249;48.900;9.090;2022-08-03T02:36:14;18.80;99.90
20180;DHT22;10249;48.900;9.090;2022-08-03T02:38:49;18.70;99.90
20180;DHT22;10249;48.900;9.090;2022-08-03T02:41:20;18.70;99.90
20180;DHT22;10249;48.900;9.090;2022-08-03T02:43:51;18.70;99.90
20180;DHT22;10249;48.900;9.090;2022-08-03T02:46:21;18.70;99.90
20180;DHT22;10249;48.900;9.090;2022-08-03T02:48:51;18.70;99.90
20180;DHT22;10249;48.900;9.090;2022-08-03T02:51:21;18.60;99.90
20180;DHT22;10249;48.900;9.090;2022-08-03T02:53:49;18.50;99.90
20180;DHT22;10249;48.900;9.090;2022-08-03T02:56:18;18.30;99.90
20180;DHT22;10249;48.900;9.090;2022-08-03T02:58:46;18.30;99.90
20180;DHT22;10249;48.900;9.090;2022-08-03T03:01:14;18.10;99.90
20180;DHT22;10249;48.900;9.090;2022-08-03T03:03:42;18.10;99.90
20180;DHT22;10249;48.900;9.090;2022-08-03T03:06:10;18.30;99.90
20180;DHT22;10249;48.900;9.090;2022-08-03T03:08:39;18.20;99.90
20180;DHT22;10249;48.900;9.090;2022-08-03T03:11:07;18.20;99.90
20180;DHT22;10249;48.900;9.090;2022-08-03T03:13:34;18.10;99.90
20180;DHT22;10249;48.900;9.090;2022-08-03T03:16:05;18.00;99.90
20180;DHT22;10249;48.900;9.090;2022-08-03T03:18:33;17.90;99.90
20180;DHT22;10249;48.900;9.090;2022-08-03T03:21:01;18.00;99.90
20180;DHT22;10249;48.900;9.090;2022-08-03T03:23:29;18.10;99.90
20180;DHT22;10249;48.900;9.090;2022-08-03T03:25:58;18.10;99.90
20180;DHT22;10249;48.900;9.090;2022-08-03T03:28:26;18.20;99.90
20180;DHT22;10249;48.900;9.090;2022-08-03T03:30:53;18.20;99.90
20180;DHT22;10249;48.900;9.090;2022-08-03T03:33:21;18.20;99.90
20180;DHT22;10249;48.900;9.090;2022-08-03T03:35:48;18.10;99.90
20180;DHT22;10249;48.900;9.090;2022-08-03T03:38:16;18.10;99.90
20180;DHT22;10249;48.900;9.090;2022-08-03T03:40:43;18.30;99.90
20180;DHT22;10249;48.900;9.090;2022-08-03T03:43:12;18.20;99.90
20180;DHT22;10249;48.900;9.090;2022-08-03T03:45:40;18.30;99.90
20180;DHT22;10249;48.900;9.090;2022-08-03T03:48:07;18.30;99.90
20180;DHT22;10249;48.900;9.090;2022-08-03T03:50:35;18.10;99.90
20180;DHT22;10249;48.900;9.090;2022-08-03T03:53:08;18.00;99.90
20180;DHT22;10249;48.900;9.090;2022-08-03T03:55:35;17.90;99.90
20180;DHT22;10249;48.900;9.090;2022-08-03T03:58:02;17.90;99.90
20180;DHT22;10249;48.900;9.090;2022-08-03T04:00:31;17.80;99.90
20180;DHT22;10249;48.900;9.090;2022-08-03T04:02:57;17.80;99.90
20180;DHT22;10249;48.900;9.090;2022-08-03T04:05:24;17.80;99.90
20180;DHT22;10249;48.900;9.090;2022-08-03T04:08:11;17.70;99.90
20180;DHT22;10249;48.900;9.090;2022-08-03T04:11:04;17.60;99.90
20180;DHT22;10249;48.900;9.090;2022-08-03T04:13:35;17.80;99.90
20180;DHT22;10249;48.900;9.090;2022-08-03T04:16:05;17.90;99.90
20180;DHT22;10249;48.900;9.090;2022-08-03T04:18:33;18.00;99.90
20180;DHT22;10249;48.900;9.090;2022-08-03T04:21:03;18.00;99.90
20180;DHT22;10249;48.900;9.090;2022-08-03T04:23:33;17.90;99.90
20180;DHT22;10249;48.900;9.090;2022-08-03T04:26:02;18.20;99.90
20180;DHT22;10249;48.900;9.090;2022-08-03T04:28:31;18.10;99.90
20180;DHT22;10249;48.900;9.090;2022-08-03T04:31:00;17.90;99.90
20180;DHT22;10249;48.900;9.090;2022-08-03T04:33:32;18.00;99.90
20180;DHT22;10249;48.900;9.090;2022-08-03T04:36:02;18.20;99.90
20180;DHT22;10249;48.900;9.090;2022-08-03T04:38:31;18.10;99.90
20180;DHT22;10249;48.900;9.090;2022-08-03T04:41:00;18.00;99.90
20180;DHT22;10249;48.900;9.090;2022-08-03T04:43:27;18.00;99.90
20180;DHT22;10249;48.900;9.090;2022-08-03T04:45:55;18.00;99.90
20180;DHT22;10249;48.900;9.090;2022-08-03T04:48:22;18.20;99.90
20180;DHT22;10249;48.900;9.090;2022-08-03T04:50:51;18.30;99.90
20180;DHT22;10249;48.900;9.090;2022-08-03T04:53:18;18.40;99.90
20180;DHT22;10249;48.900;9.090;2022-08-03T04:55:45;18.50;99.90
20180;DHT22;10249;48.900;9.090;2022-08-03T04:58:12;18.60;99.90
20180;DHT22;10249;48.900;9.090;2022-08-03T05:00:38;18.60;99.90
20180;DHT22;10249;48.900;9.090;2022-08-03T05:03:05;18.70;99.90
20180;DHT22;10249;48.900;9.090;2022-08-03T05:05:32;18.70;99.90
20180;DHT22;10249;48.900;9.090;2022-08-03T05:08:00;18.80;99.90
20180;DHT22;10249;48.900;9.090;2022-08-03T05:10:27;18.80;99.90
20180;DHT22;10249;48.900;9.090;2022-08-03T05:12:54;19.00;99.90
20180;DHT22;10249;48.900;9.090;2022-08-03T05:15:20;19.00;99.90
20180;DHT22;10249;48.900;9.090;2022-08-03T05:17:47;19.20;99.90
20180;DHT22;10249;48.900;9.090;2022-08-03T05:20:14;19.30;99.90
20180;DHT22;10249;48.900;9.090;2022-08-03T05:22:41;19.20;99.90
20180;DHT22;10249;48.900;9.090;2022-08-03T05:25:09;19.20;99.90
20180;DHT22;10249;48.900;9.090;2022-08-03T05:27:36;19.10;99.90
20180;DHT22;10249;48.900;9.090;2022-08-03T05:30:03;19.30;99.90
20180;DHT22;10249;48.900;9.090;2022-08-03T05:32:30;19.50;99.90
20180;DHT22;10249;48.900;9.090;2022-08-03T05:34:57;19.50;99.90
20180;DHT22;10249;48.900;9.090;2022-08-03T05:37:24;19.70;99.90
20180;DHT22;10249;48.900;9.090;2022-08-03T05:39:51;19.90;99.90
20180;DHT22;10249;48.900;9.090;2022-08-03T05:42:19;20.00;99.90
20180;DHT22;10249;48.900;9.090;2022-08-03T05:44:45;20.00;99.90
20180;DHT22;10249;48.900;9.090;2022-08-03T05:47:12;20.10;99.90
20180;DHT22;10249;48.900;9.090;2022-08-03T05:49:39;20.00;99.90
20180;DHT22;10249;48.900;9.090;2022-08-03T05:52:05;20.20;99.90
20180;DHT22;10249;48.900;9.090;2022-08-03T05:54:32;20.40;99.90
20180;DHT22;10249;48.900;9.090;2022-08-03T05:56:59;20.40;99.90
20180;DHT22;10249;48.900;9.090;2022-08-03T05:59:27;20.40;99.90
20180;DHT22;10249;48.900;9.090;2022-08-03T06:01:53;20.50;99.90
20180;DHT22;10249;48.900;9.090;2022-08-03T06:04:20;20.70;99.90
20180;DHT22;10249;48.900;9.090;2022-08-03T06:06:47;20.80;99.90
20180;DHT22;10249;48.900;9.090;2022-08-03T06:09:15;20.70;99.90
20180;DHT22;10249;48.900;9.090;2022-08-03T06:11:42;20.90;99.90
20180;DHT22;10249;48.900;9.090;2022-08-03T06:14:08;21.00;99.90
20180;DHT22;10249;48.900;9.090;2022-08-03T06:16:36;21.00;99.90
20180;DHT22;10249;48.900;9.090;2022-08-03T06:19:03;21.20;99.90
20180;DHT22;10249;48.900;9.090;2022-08-03T06:21:30;21.50;99.90
20180;DHT22;10249;48.900;9.090;2022-08-03T06:23:56;21.40;99.90
20180;DHT22;10249;48.900;9.090;2022-08-03T06:26:24;21.40;99.90
20180;DHT22;10249;48.900;9.090;2022-08-03T06:28:51;21.60;99.90
20180;DHT22;10249;48.900;9.090;2022-08-03T06:31:19;21.70;99.90
20180;DHT22;10249;48.900;9.090;2022-08-03T06:33:48;21.80;99.90
20180;DHT22;10249;48.900;9.090;2022-08-03T06:36:15;21.80;99.90
20180;DHT22;10249;48.900;9.090;2022-08-03T06:38:42;21.90;99.90
20180;DHT22;10249;48.900;9.090;2022-08-03T06:41:08;22.10;99.90
20180;DHT22;10249;48.900;9.090;2022-08-03T06:43:35;22.10;99.90
20180;DHT22;10249;48.900;9.090;2022-08-03T06:46:02;22.30;99.90
20180;DHT22;10249;48.900;9.090;2022-08-03T06:48:30;22.50;99.90
20180;DHT22;10249;48.900;9.090;2022-08-03T06:50:58;22.60;99.90
20180;DHT22;10249;48.900;9.090;2022-08-03T06:53:25;22.70;99.90
20180;DHT22;10249;48.900;9.090;2022-08-03T06:55:51;22.80;99.90
20180;DHT22;10249;48.900;9.090;2022-08-03T06:58:18;22.90;99.90
20180;DHT22;10249;48.900;9.090;2022-08-03T07:00:45;23.20;99.90
20180;DHT22;10249;48.900;9.090;2022-08-03T07:03:11;23.10;99.90
20180;DHT22;10249;48.900;9.090;2022-08-03T07:05:40;23.30;99.90
20180;DHT22;10249;48.900;9.090;2022-08-03T07:08:08;23.40;99.90
20180;DHT22;10249;48.900;9.090;2022-08-03T07:10:35;23.80;99.90
20180;DHT22;10249;48.900;9.090;2022-08-03T07:13:01;24.00;99.90
20180;DHT22;10249;48.900;9.090;2022-08-03T07:15:28;23.90;99.90
20180;DHT22;10249;48.900;9.090;2022-08-03T07:17:55;24.40;99.90
20180;DHT22;10249;48.900;9.090;2022-08-03T07:20:22;24.40;99.90
20180;DHT22;10249;48.900;9.090;2022-08-03T07:22:49;24.40;99.90
20180;DHT22;10249;48.900;9.090;2022-08-03T07:25:17;24.60;99.90
20180;DHT22;10249;48.900;9.090;2022-08-03T07:27:44;24.60;99.90
20180;DHT22;10249;48.900;9.090;2022-08-03T07:30:13;24.70;99.90
20180;DHT22;10249;48.900;9.090;2022-08-03T07:32:40;24.80;99.90
20180;DHT22;10249;48.900;9.090;2022-08-03T07:35:07;25.10;99.90
20180;DHT22;10249;48.900;9.090;2022-08-03T07:37:35;25.10;99.90
20180;DHT22;10249;48.900;9.090;2022-08-03T07:42:31;25.30;99.90
20180;DHT22;10249;48.900;9.090;2022-08-03T07:44:58;25.50;99.90
20180;DHT22;10249;48.900;9.090;2022-08-03T07:47:26;25.80;99.90
20180;DHT22;10249;48.900;9.090;2022-08-03T07:49:54;25.60;99.90
20180;DHT22;10249;48.900;9.090;2022-08-03T07:52:21;25.70;99.90
20180;DHT22;10249;48.900;9.090;2022-08-03T07:55:07;25.80;99.90
20180;DHT22;10249;48.900;9.090;2022-08-03T07:57:35;25.90;99.90
20180;DHT22;10249;48.900;9.090;2022-08-03T08:00:03;26.10;99.90
20180;DHT22;10249;48.900;9.090;2022-08-03T08:02:30;26.10;99.90
20180;DHT22;10249;48.900;9.090;2022-08-03T08:04:57;26.50;99.90
20180;DHT22;10249;48.900;9.090;2022-08-03T08:07:24;26.60;99.90
20180;DHT22;10249;48.900;9.090;2022-08-03T08:09:51;26.60;99.90
20180;DHT22;10249;48.900;9.090;2022-08-03T08:12:17;26.90;99.90
20180;DHT22;10249;48.900;9.090;2022-08-03T08:14:45;27.00;99.90
20180;DHT22;10249;48.900;9.090;2022-08-03T08:17:12;26.80;99.90
20180;DHT22;10249;48.900;9.090;2022-08-03T08:19:39;27.00;99.90
20180;DHT22;10249;48.900;9.090;2022-08-03T08:22:06;27.20;99.90
20180;DHT22;10249;48.900;9.090;2022-08-03T08:24:32;27.40;99.90
20180;DHT22;10249;48.900;9.090;2022-08-03T08:26:59;27.50;99.90
20180;DHT22;10249;48.900;9.090;2022-08-03T08:29:26;27.50;99.90
20180;DHT22;10249;48.900;9.090;2022-08-03T08:31:54;27.60;99.90
20180;DHT22;10249;48.900;9.090;2022-08-03T08:34:21;27.80;99.90
20180;DHT22;10249;48.900;9.090;2022-08-03T08:36:47;28.20;99.90
20180;DHT22;10249;48.900;9.090;2022-08-03T08:39:14;28.20;99.90
20180;DHT22;10249;48.900;9.090;2022-08-03T08:41:41;28.10;99.90
20180;DHT22;10249;48.900;9.090;2022-08-03T08:44:07;28.20;99.90
20180;DHT22;10249;48.900;9.090;2022-08-03T08:46:37;28.30;99.90
20180;DHT22;10249;48.900;9.090;2022-08-03T08:49:07;28.30;99.90
20180;DHT22;10249;48.900;9.090;2022-08-03T08:51:35;28.50;99.90
20180;DHT22;10249;48.900;9.090;2022-08-03T08:54:06;28.50;99.90
20180;DHT22;10249;48.900;9.090;2022-08-03T08:56:35;28.60;99.90
20180;DHT22;10249;48.900;9.090;2022-08-03T08:59:03;28.50;99.90
20180;DHT22;10249;48.900;9.090;2022-08-03T09:01:30;28.50;99.90
20180;DHT22;10249;48.900;9.090;2022-08-03T09:03:56;28.60;99.90
20180;DHT22;10249;48.900;9.090;2022-08-03T09:06:24;28.90;99.90
20180;DHT22;10249;48.900;9.090;2022-08-03T09:08:51;28.90;99.90
20180;DHT22;10249;48.900;9.090;2022-08-03T09:11:20;29.00;99.90
20180;DHT22;10249;48.900;9.090;2022-08-03T09:13:48;29.30;99.90
20180;DHT22;10249;48.900;9.090;2022-08-03T09:16:17;29.30;99.90
20180;DHT22;10249;48.900;9.090;2022-08-03T09:18:46;29.50;99.90
20180;DHT22;10249;48.900;9.090;2022-08-03T09:21:19;29.60;99.90
20180;DHT22;10249;48.900;9.090;2022-08-03T09:23:50;29.80;99.90
20180;DHT22;10249;48.900;9.090;2022-08-03T09:26:22;29.80;99.90
20180;DHT22;10249;48.900;9.090;2022-08-03T09:28:56;29.60;99.90
20180;DHT22;10249;48.900;9.090;2022-08-03T09:31:31;29.90;99.90
20180;DHT22;10249;48.900;9.090;2022-08-03T09:34:00;29.80;99.90
20180;DHT22;10249;48.900;9.090;2022-08-03T09:36:34;29.70;99.90
20180;DHT22;10249;48.900;9.090;2022-08-03T09:39:04;30.00;99.90
20180;DHT22;10249;48.900;9.090;2022-08-03T09:41:31;29.90;99.90
20180;DHT22;10249;48.900;9.090;2022-08-03T09:43:59;29.70;99.90
20180;DHT22;10249;48.900;9.090;2022-08-03T09:46:25;30.00;99.90
20180;DHT22;10249;48.900;9.090;2022-08-03T09:49:08;30.20;99.90
20180;DHT22;10249;48.900;9.090;2022-08-03T09:51:35;30.40;99.90
20180;DHT22;10249;48.900;9.090;2022-08-03T09:54:04;30.50;99.90
20180;DHT22;10249;48.900;9.090;2022-08-03T09:56:42;30.50;99.90
20180;DHT22;10249;48.900;9.090;2022-08-03T09:59:11;30.70;99.90
20180;DHT22;10249;48.900;9.090;2022-08-03T10:01:38;30.70;99.90
20180;DHT22;10249;48.900;9.090;2022-08-03T10:04:11;30.80;99.90
20180;DHT22;10249;48.900;9.090;2022-08-03T10:06:42;30.60;99.90
20180;DHT22;10249;48.900;9.090;2022-08-03T10:09:12;30.50;99.90
20180;DHT22;10249;48.900;9.090;2022-08-03T10:11:41;30.90;99.90
20180;DHT22;10249;48.900;9.090;2022-08-03T10:14:08;31.00;99.90
20180;DHT22;10249;48.900;9.090;2022-08-03T10:16:37;30.70;99.90
20180;DHT22;10249;48.900;9.090;2022-08-03T10:19:05;30.70;99.90
20180;DHT22;10249;48.900;9.090;2022-08-03T10:21:34;31.00;99.90
20180;DHT22;10249;48.900;9.090;2022-08-03T10:24:04;31.30;99.90
20180;DHT22;10249;48.900;9.090;2022-08-03T10:26:34;31.40;99.90
20180;DHT22;10249;48.900;9.090;2022-08-03T10:29:02;31.40;99.90
20180;DHT22;10249;48.900;9.090;2022-08-03T10:31:34;31.60;99.90
20180;DHT22;10249;48.900;9.090;2022-08-03T10:34:04;31.70;99.90
20180;DHT22;10249;48.900;9.090;2022-08-03T10:36:32;31.40;99.90
20180;DHT22;10249;48.900;9.090;2022-08-03T10:39:02;31.70;99.90
20180;DHT22;10249;48.900;9.090;2022-08-03T10:41:33;31.30;99.90
20180;DHT22;10249;48.900;9.090;2022-08-03T10:44:03;31.30;99.90
20180;DHT22;10249;48.900;9.090;2022-08-03T10:46:32;31.20;99.90
20180;DHT22;10249;48.900;9.090;2022-08-03T10:48:59;31.10;99.90
20180;DHT22;10249;48.900;9.090;2022-08-03T10:51:27;31.40;99.90
20180;DHT22;10249;48.900;9.090;2022-08-03T10:53:57;31.70;99.90
20180;DHT22;10249;48.900;9.090;2022-08-03T10:56:40;31.70;99.90
20180;DHT22;10249;48.900;9.090;2022-08-03T10:59:56;32.10;99.90
20180;DHT22;10249;48.900;9.090;2022-08-03T11:05:26;32.20;99.90
20180;DHT22;10249;48.900;9.090;2022-08-03T11:08:21;32.30;99.90
20180;DHT22;10249;48.900;9.090;2022-08-03T11:10:49;32.00;99.90
20180;DHT22;10249;48.900;9.090;2022-08-03T11:13:20;32.10;99.90
20180;DHT22;10249;48.900;9.090;2022-08-03T11:15:49;32.40;99.90
20180;DHT22;10249;48.900;9.090;2022-08-03T11:18:16;32.80;99.90
20180;DHT22;10249;48.900;9.090;2022-08-03T11:20:45;33.10;99.90
20180;DHT22;10249;48.900;9.090;2022-08-03T11:23:12;33.20;99.90
20180;DHT22;10249;48.900;9.090;2022-08-03T11:26:08;33.10;99.90
20180;DHT22;10249;48.900;9.090;2022-08-03T11:28:36;32.80;99.90
20180;DHT22;10249;48.900;9.090;2022-08-03T11:34:13;32.90;99.90
20180;DHT22;10249;48.900;9.090;2022-08-03T11:39:45;32.40;99.90
20180;DHT22;10249;48.900;9.090;2022-08-03T11:42:36;31.40;99.90
20180;DHT22;10249;48.900;9.090;2022-08-03T11:45:06;32.20;99.90
20180;DHT22;10249;48.900;9.090;2022-08-03T11:47:36;33.50;99.90
20180;DHT22;10249;48.900;9.090;2022-08-03T11:52:34;34.30;99.90
20180;DHT22;10249;48.900;9.090;2022-08-03T11:55:01;34.10;99.90
20180;DHT22;10249;48.900;9.090;2022-08-03T11:57:34;34.70;99.90
20180;DHT22;10249;48.900;9.090;2022-08-03T12:02:29;34.70;99.90
20180;DHT22;10249;48.900;9.090;2022-08-03T12:04:58;35.20;99.90
20180;DHT22;10249;48.900;9.090;2022-08-03T12:07:26;35.20;99.90
20180;DHT22;10249;48.900;9.090;2022-08-03T12:10:07;34.10;99.90
20180;DHT22;10249;48.900;9.090;2022-08-03T12:12:34;34.40;99.90
20180;DHT22;10249;48.900;9.090;2022-08-03T12:15:01;35.30;99.90
20180;DHT22;10249;48.900;9.090;2022-08-03T12:17:33;35.40;98.80
20180;DHT22;10249;48.900;9.090;2022-08-03T12:20:00;35.30;99.10
20180;DHT22;10249;48.900;9.090;2022-08-03T12:22:31;36.30;98.90
20180;DHT22;10249;48.900;9.090;2022-08-03T12:24:58;36.20;99.90
20180;DHT22;10249;48.900;9.090;2022-08-03T12:27:25;34.60;99.90
20180;DHT22;10249;48.900;9.090;2022-08-03T12:29:54;35.70;99.90
20180;DHT22;10249;48.900;9.090;2022-08-03T12:32:22;35.90;99.90
20180;DHT22;10249;48.900;9.090;2022-08-03T12:34:51;36.50;99.90
20180;DHT22;10249;48.900;9.090;2022-08-03T12:37:18;36.60;99.90
20180;DHT22;10249;48.900;9.090;2022-08-03T12:39:49;38.00;99.90
20180;DHT22;10249;48.900;9.090;2022-08-03T12:42:16;38.30;99.90
20180;DHT22;10249;48.900;9.090;2022-08-03T12:44:43;38.80;97.30
20180;DHT22;10249;48.900;9.090;2022-08-03T12:47:11;38.50;97.00
20180;DHT22;10249;48.900;9.090;2022-08-03T12:49:44;38.00;97.20
20180;DHT22;10249;48.900;9.090;2022-08-03T12:52:13;38.00;97.30
20180;DHT22;10249;48.900;9.090;2022-08-03T12:54:40;38.50;97.10
20180;DHT22;10249;48.900;9.090;2022-08-03T12:57:09;38.30;97.00
20180;DHT22;10249;48.900;9.090;2022-08-03T12:59:38;37.80;96.20
20180;DHT22;10249;48.900;9.090;2022-08-03T13:02:13;36.00;96.70
20180;DHT22;10249;48.900;9.090;2022-08-03T13:04:41;36.70;96.00
20180;DHT22;10249;48.900;9.090;2022-08-03T13:07:09;37.90;96.60
20180;DHT22;10249;48.900;9.090;2022-08-03T13:09:42;37.50;96.10
20180;DHT22;10249;48.900;9.090;2022-08-03T13:12:10;38.20;95.30
20180;DHT22;10249;48.900;9.090;2022-08-03T13:14:37;38.50;95.70
20180;DHT22;10249;48.900;9.090;2022-08-03T13:17:05;36.80;95.80
20180;DHT22;10249;48.900;9.090;2022-08-03T13:19:32;36.70;95.10
20180;DHT22;10249;48.900;9.090;2022-08-03T13:21:59;37.90;94.70
20180;DHT22;10249;48.900;9.090;2022-08-03T13:24:27;38.60;94.70
20180;DHT22;10249;48.900;9.090;2022-08-03T13:26:55;36.30;94.10
20180;DHT22;10249;48.900;9.090;2022-08-03T13:29:21;36.60;95.70
20180;DHT22;10249;48.900;9.090;2022-08-03T13:31:48;38.50;98.90
20180;DHT22;10249;48.900;9.090;2022-08-03T13:34:15;36.20;94.00
20180;DHT22;10249;48.900;9.090;2022-08-03T13:36:41;35.80;94.70
20180;DHT22;10249;48.900;9.090;2022-08-03T13:39:08;35.10;99.90
20180;DHT22;10249;48.900;9.090;2022-08-03T13:41:35;36.90;99.50
20180;DHT22;10249;48.900;9.090;2022-08-03T13:44:03;37.60;98.80
20180;DHT22;10249;48.900;9.090;2022-08-03T14:28:13;40.40;76.70
20180;DHT22;10249;48.900;9.090;2022-08-03T14:30:40;39.00;79.30
20180;DHT22;10249;48.900;9.090;2022-08-03T14:33:06;39.60;81.50
20180;DHT22;10249;48.900;9.090;2022-08-03T14:35:34;38.60;81.20
20180;DHT22;10249;48.900;9.090;2022-08-03T14:40:28;36.00;99.90
20180;DHT22;10249;48.900;9.090;2022-08-03T14:42:55;37.50;99.90
20180;DHT22;10249;48.900;9.090;2022-08-03T14:45:22;38.50;99.90
20180;DHT22;10249;48.900;9.090;2022-08-03T14:50:16;41.60;77.50
20180;DHT22;10249;48.900;9.090;2022-08-03T14:52:44;41.90;77.70
20180;DHT22;10249;48.900;9.090;2022-08-03T14:55:11;40.70;77.50
20180;DHT22;10249;48.900;9.090;2022-08-03T14:57:38;40.60;79.80
20180;DHT22;10249;48.900;9.090;2022-08-03T15:00:05;41.00;79.50
20180;DHT22;10249;48.900;9.090;2022-08-03T15:02:32;41.80;76.80
20180;DHT22;10249;48.900;9.090;2022-08-03T15:05:00;40.60;76.30
20180;DHT22;10249;48.900;9.090;2022-08-03T15:07:26;39.60;80.90
20180;DHT22;10249;48.900;9.090;2022-08-03T15:09:54;40.10;78.30
20180;DHT22;10249;48.900;9.090;2022-08-03T15:12:21;40.90;78.80
20180;DHT22;10249;48.900;9.090;2022-08-03T15:14:48;41.00;78.80
20180;DHT22;10249;48.900;9.090;2022-08-03T15:17:14;37.10;81.00
20180;DHT22;10249;48.900;9.090;2022-08-03T15:19:41;37.30;83.50
20180;DHT22;10249;48.900;9.090;2022-08-03T15:22:08;39.10;83.10
20180;DHT22;10249;48.900;9.090;2022-08-03T15:24:35;40.10;82.30
20180;DHT22;10249;48.900;9.090;2022-08-03T15:27:03;41.00;80.00
20180;DHT22;10249;48.900;9.090;2022-08-03T15:29:29;41.90;79.50
20180;DHT22;10249;48.900;9.090;2022-08-03T15:31:56;39.50;78.40
20180;DHT22;10249;48.900;9.090;2022-08-03T15:34:23;38.30;79.90
20180;DHT22;10249;48.900;9.090;2022-08-03T15:36:49;37.00;93.80
20180;DHT22;10249;48.900;9.090;2022-08-03T15:39:16;38.00;87.00
20180;DHT22;10249;48.900;9.090;2022-08-03T15:41:43;39.10;86.70
20180;DHT22;10249;48.900;9.090;2022-08-03T15:44:11;38.80;85.00
20180;DHT22;10249;48.900;9.090;2022-08-03T15:46:38;39.80;86.40
20180;DHT22;10249;48.900;9.090;2022-08-03T15:49:05;40.20;86.70
20180;DHT22;10249;48.900;9.090;2022-08-03T15:51:31;41.20;84.80
20180;DHT22;10249;48.900;9.090;2022-08-03T15:53:58;41.80;80.90
20180;DHT22;10249;48.900;9.090;2022-08-03T15:56:25;42.20;78.80
20180;DHT22;10249;48.900;9.090;2022-08-03T15:58:51;42.00;79.20
20180;DHT22;10249;48.900;9.090;2022-08-03T16:01:19;41.20;78.80
20180;DHT22;10249;48.900;9.090;2022-08-03T16:03:46;41.90;78.30
20180;DHT22;10249;48.900;9.090;2022-08-03T16:06:13;42.10;79.10
20180;DHT22;10249;48.900;9.090;2022-08-03T16:08:40;43.00;77.30
20180;DHT22;10249;48.900;9.090;2022-08-03T16:11:07;43.00;77.10
20180;DHT22;10249;48.900;9.090;2022-08-03T16:13:33;42.30;77.80
20180;DHT22;10249;48.900;9.090;2022-08-03T16:16:00;42.90;76.10
20180;DHT22;10249;48.900;9.090;2022-08-03T16:18:30;42.40;78.30
20180;DHT22;10249;48.900;9.090;2022-08-03T16:20:56;42.70;78.30
20180;DHT22;10249;48.900;9.090;2022-08-03T16:23:24;43.10;77.90
20180;DHT22;10249;48.900;9.090;2022-08-03T16:25:51;42.80;77.70
20180;DHT22;10249;48.900;9.090;2022-08-03T16:28:18;42.10;76.50
20180;DHT22;10249;48.900;9.090;2022-08-03T16:30:45;42.50;76.70
20180;DHT22;10249;48.900;9.090;2022-08-03T16:33:13;43.20;76.60
20180;DHT22;10249;48.900;9.090;2022-08-03T16:35:41;43.60;76.20
20180;DHT22;10249;48.900;9.090;2022-08-03T16:38:08;43.10;75.00
20180;DHT22;10249;48.900;9.090;2022-08-03T16:40:35;43.10;75.00
20180;DHT22;10249;48.900;9.090;2022-08-03T16:43:09;43.50;75.90
20180;DHT22;10249;48.900;9.090;2022-08-03T16:45:36;43.50;75.50